18:54
Airports
History
Links
Donate
Help keep this website running!
PayPal
Bitcoin
This page is community maintained. The information is intended for PC simulator navigation or reference.
Always use approved charts for navigation.
9MN9
Tofte
Tofte (9MN9)
Tofte, Minnesota, United States (55615)
(U)
Lat/Lng:47° 35' 16.64" N / 90° 49' 24.53" W
47.587956 / -90.82348
Elevation:790'ft / 241mMSL
ID / ICAO:9MN9
Runways:1
Longest:06-24
Asphalt 789m / 2,587ft
Nearby Weather07:34 GMT 2018-02-21
Nearby weather at KBFW, Silver Bay Muni located 36.3 nautical miles from 9MN9
Altimeter: 30.22
Visibility: 10.0 statute miles
Wind: 4 knots (from 290°)
Temp: -13°c / 9°f
Humidity: 71.8%

METAR: KBFW 210734Z AUTO 29004KT 10SM CLR M13/M17 A3022 RMK AO2

(Powered by phpweather)
Nearby VORs <50NM
Nearby NDBs
Runway 06 / 24
Dimensions:788.6 x 15.2m 2587' x 50'ft
Surface:Asphalt
Runway 06 [A]Runway 24 [B]
Heading:059°TH 239°TH
Lat:
Lng:
47° 35' 10.22"N
90° 49' 41.01"W
47° 35' 23.06"N
90° 49' 8.04"W
User Notes and Comments
47° 35' 16.64" N / 90° 49' 24.53" W
Distance To
Airport ID:
Nearby Airports
(U) Grand Marais/cook County 26.8 NM
KCKC NE 49°
(U) Silver Bay Muni 36.3 NM
KBFW ( WX ) SW 229°
(R) Petit Cache 48.0 NM
WS19 S 179°
(U) Ely Muni 49.5 NM
KELO ( WX ) WNW 289°
(R) Weideman Intl 49.9 NM
63MN SW 226°
(R) Cornucopia Field 51.3 NM
WI23 SSW 193°
(U) Major Gilbert Field 55.3 NM
4R5 S 176°
VFR Chart
Flight Planning at SkyVector.com